OCN5ZT LGMK-EDDF
Flight info
| Callsign | OCN5ZT |
|---|---|
| Flight time | 2h 46m |
| Altitude | 24000 |
| Route | VARIX L995 KEA/N0442F360 UN132 ROPOX UM749 SKP UL617 IBIDI/N0443F380 UL617 MAKED DCT LONTA UL608 DOLEV DCT LURID DCT BEDOX DCT SIMBA DCT AKINI T161 DEBHI DEBHI1A |
| Aircraft | A320/M-SDE2E3FGIJ1LORWXYZ/HB1 |
Departure
| Time | 2026-05-05 15:52 |
|---|---|
| Airport | Mykonos Island National Airport (LGMK) |
Arrival
| Time | 2026-05-05 18:38 |
|---|---|
| Airport | Frankfurt Main Airport (EDDF) |
| Time | Latitude | Longitude | Altitude | Speed | Heading |
|---|---|---|---|---|---|
| 2026-05-05 15:30 | 37.43506 | 25.34644 | 405 ft | 0 kts | 251° |
| 2026-05-05 15:30 | 37.43506 | 25.34643 | 405 ft | 0 kts | 251° |
| 2026-05-05 15:31 | 37.43506 | 25.34644 | 405 ft | 0 kts | 251° |
| 2026-05-05 15:34 | 37.43506 | 25.34643 | 405 ft | 0 kts | 251° |
| 2026-05-05 15:34 | 37.43506 | 25.34644 | 405 ft | 0 kts | 251° |
| 2026-05-05 15:45 | 37.43511 | 25.34660 | 404 ft | 4 kts | 251° |
| 2026-05-05 15:45 | 37.43518 | 25.34685 | 406 ft | 4 kts | 269° |
| 2026-05-05 15:45 | 37.43509 | 25.34708 | 403 ft | 4 kts | 333° |
| 2026-05-05 15:45 | 37.43485 | 25.34720 | 405 ft | 4 kts | 341° |
| 2026-05-05 15:46 | 37.43468 | 25.34727 | 407 ft | 0 kts | 341° |
| 2026-05-05 15:48 | 37.43487 | 25.34719 | 405 ft | 3 kts | 341° |
| 2026-05-05 15:48 | 37.43538 | 25.34697 | 406 ft | 11 kts | 341° |
| 2026-05-05 15:49 | 37.43602 | 25.34671 | 408 ft | 9 kts | 351° |
| 2026-05-05 15:49 | 37.43648 | 25.34696 | 409 ft | 5 kts | 32° |
| 2026-05-05 15:49 | 37.43672 | 25.34714 | 407 ft | 3 kts | 32° |
| 2026-05-05 15:49 | 37.43708 | 25.34737 | 411 ft | 7 kts | 2° |
| 2026-05-05 15:50 | 37.43782 | 25.34703 | 411 ft | 16 kts | 339° |
| 2026-05-05 15:50 | 37.43896 | 25.34653 | 412 ft | 18 kts | 340° |
| 2026-05-05 15:50 | 37.44019 | 25.34597 | 409 ft | 20 kts | 340° |
| 2026-05-05 15:50 | 37.44162 | 25.34534 | 407 ft | 23 kts | 340° |
| 2026-05-05 15:51 | 37.44268 | 25.34462 | 405 ft | 12 kts | 313° |
| 2026-05-05 15:51 | 37.44296 | 25.34479 | 403 ft | 4 kts | 152° |
| 2026-05-05 15:51 | 37.44265 | 25.34489 | 405 ft | 6 kts | 160° |
| 2026-05-05 15:51 | 37.44255 | 25.34494 | 405 ft | 0 kts | 160° |
| 2026-05-05 15:52 | 37.44094 | 25.34566 | 408 ft | 63 kts | 161° |
| 2026-05-05 15:52 | 37.43454 | 25.34849 | 411 ft | 129 kts | 161° |
| 2026-05-05 15:52 | 37.42493 | 25.35279 | 699 ft | 156 kts | 161° |
| 2026-05-05 15:52 | 37.41450 | 25.35742 | 1394 ft | 159 kts | 163° |
| 2026-05-05 15:53 | 37.40410 | 25.36197 | 2013 ft | 169 kts | 163° |
| 2026-05-05 15:53 | 37.39213 | 25.36718 | 2297 ft | 191 kts | 163° |
| 2026-05-05 15:53 | 37.37898 | 25.37290 | 2554 ft | 213 kts | 163° |
| 2026-05-05 15:53 | 37.36465 | 25.37922 | 3152 ft | 221 kts | 162° |
| 2026-05-05 15:54 | 37.34952 | 25.38238 | 3826 ft | 223 kts | 192° |
| 2026-05-05 15:54 | 37.33559 | 25.37431 | 4343 ft | 228 kts | 231° |
| 2026-05-05 15:54 | 37.32699 | 25.35736 | 4884 ft | 235 kts | 249° |
| 2026-05-05 15:54 | 37.31937 | 25.33889 | 5625 ft | 241 kts | 248° |
| 2026-05-05 15:55 | 37.31142 | 25.31985 | 6440 ft | 244 kts | 248° |
| 2026-05-05 15:55 | 37.30353 | 25.30109 | 7200 ft | 248 kts | 248° |
| 2026-05-05 15:55 | 37.29538 | 25.28178 | 7976 ft | 252 kts | 247° |
| 2026-05-05 15:55 | 37.28707 | 25.26219 | 8770 ft | 256 kts | 247° |
| 2026-05-05 15:56 | 37.27886 | 25.24219 | 9552 ft | 258 kts | 253° |
| 2026-05-05 15:56 | 37.27492 | 25.22048 | 10294 ft | 255 kts | 273° |
| 2026-05-05 15:56 | 37.27699 | 25.19843 | 10828 ft | 261 kts | 292° |
| 2026-05-05 15:56 | 37.28547 | 25.17770 | 11172 ft | 274 kts | 309° |
| 2026-05-05 15:57 | 37.29663 | 25.15778 | 11808 ft | 282 kts | 308° |
| 2026-05-05 15:57 | 37.30789 | 25.13737 | 12550 ft | 286 kts | 308° |
| 2026-05-05 15:57 | 37.31923 | 25.11664 | 13304 ft | 290 kts | 308° |
| 2026-05-05 15:57 | 37.33070 | 25.09556 | 14034 ft | 294 kts | 308° |
| 2026-05-05 15:58 | 37.34229 | 25.07422 | 14711 ft | 297 kts | 308° |
| 2026-05-05 15:58 | 37.35396 | 25.05274 | 15409 ft | 299 kts | 308° |
| 2026-05-05 15:58 | 37.36468 | 25.03021 | 16100 ft | 304 kts | 298° |
| 2026-05-05 15:58 | 37.37228 | 25.00445 | 16305 ft | 326 kts | 292° |
| 2026-05-05 15:59 | 37.37974 | 24.97665 | 16447 ft | 345 kts | 292° |
| 2026-05-05 15:59 | 37.38737 | 24.94758 | 16876 ft | 354 kts | 292° |
| 2026-05-05 15:59 | 37.39507 | 24.91804 | 17492 ft | 357 kts | 292° |
| 2026-05-05 15:59 | 37.40282 | 24.88825 | 18145 ft | 360 kts | 292° |
| 2026-05-05 16:00 | 37.41065 | 24.85828 | 18737 ft | 362 kts | 292° |
| 2026-05-05 16:00 | 37.41856 | 24.82819 | 19318 ft | 363 kts | 292° |
| 2026-05-05 16:00 | 37.42652 | 24.79803 | 19904 ft | 364 kts | 292° |
| 2026-05-05 16:00 | 37.43451 | 24.76776 | 20476 ft | 365 kts | 292° |
| 2026-05-05 16:01 | 37.44252 | 24.73742 | 21036 ft | 366 kts | 292° |
| 2026-05-05 16:01 | 37.45058 | 24.70698 | 21604 ft | 367 kts | 292° |
| 2026-05-05 16:01 | 37.45865 | 24.67640 | 22152 ft | 369 kts | 292° |
| 2026-05-05 16:01 | 37.46671 | 24.64572 | 22692 ft | 370 kts | 292° |
| 2026-05-05 16:02 | 37.47479 | 24.61490 | 23224 ft | 371 kts | 292° |
| 2026-05-05 16:02 | 37.48288 | 24.58397 | 23721 ft | 373 kts | 292° |
| 2026-05-05 16:02 | 37.49101 | 24.55290 | 24144 ft | 374 kts | 292° |
| 2026-05-05 16:02 | 37.49916 | 24.52173 | 24569 ft | 376 kts | 292° |
| 2026-05-05 16:03 | 37.50735 | 24.49041 | 24979 ft | 377 kts | 292° |
| 2026-05-05 16:03 | 37.51555 | 24.45897 | 25392 ft | 378 kts | 292° |
| 2026-05-05 16:03 | 37.52376 | 24.42742 | 25790 ft | 380 kts | 292° |
| 2026-05-05 16:03 | 37.53201 | 24.39572 | 26189 ft | 381 kts | 292° |
| 2026-05-05 16:04 | 37.54029 | 24.36389 | 26555 ft | 383 kts | 293° |
| 2026-05-05 16:04 | 37.54976 | 24.33260 | 26927 ft | 381 kts | 300° |
| 2026-05-05 16:04 | 37.56342 | 24.30430 | 27263 ft | 378 kts | 310° |
| 2026-05-05 16:04 | 37.58112 | 24.28000 | 27663 ft | 376 kts | 320° |
| 2026-05-05 16:05 | 37.60198 | 24.26016 | 28063 ft | 376 kts | 326° |
| 2026-05-05 16:05 | 37.62365 | 24.24155 | 28458 ft | 377 kts | 326° |
| 2026-05-05 16:05 | 37.64533 | 24.22280 | 28835 ft | 378 kts | 326° |
| 2026-05-05 16:05 | 37.66707 | 24.20390 | 29204 ft | 380 kts | 326° |
| 2026-05-05 16:06 | 37.68882 | 24.18492 | 29577 ft | 381 kts | 326° |
| 2026-05-05 16:06 | 37.71064 | 24.16588 | 29929 ft | 382 kts | 326° |
| 2026-05-05 16:06 | 37.73255 | 24.14683 | 30245 ft | 383 kts | 326° |
| 2026-05-05 16:06 | 37.75451 | 24.12776 | 30523 ft | 384 kts | 326° |
| 2026-05-05 16:07 | 37.77660 | 24.10858 | 30762 ft | 386 kts | 326° |
| 2026-05-05 16:07 | 37.79879 | 24.08927 | 30996 ft | 388 kts | 326° |
| 2026-05-05 16:07 | 37.82108 | 24.06987 | 31265 ft | 389 kts | 325° |
| 2026-05-05 16:07 | 37.84339 | 24.05043 | 31560 ft | 389 kts | 325° |
| 2026-05-05 16:08 | 37.86570 | 24.03096 | 31787 ft | 390 kts | 325° |
| 2026-05-05 16:08 | 37.88801 | 24.01148 | 32118 ft | 389 kts | 325° |
| 2026-05-05 16:08 | 37.91031 | 23.99202 | 32446 ft | 389 kts | 325° |
| 2026-05-05 16:08 | 37.93257 | 23.97257 | 32777 ft | 389 kts | 324° |
| 2026-05-05 16:09 | 37.95480 | 23.95313 | 33120 ft | 388 kts | 324° |
| 2026-05-05 16:09 | 37.97698 | 23.93367 | 33446 ft | 388 kts | 324° |
| 2026-05-05 16:09 | 37.99912 | 23.91421 | 33768 ft | 387 kts | 324° |
| 2026-05-05 16:09 | 38.02126 | 23.89475 | 34091 ft | 387 kts | 324° |
| 2026-05-05 16:10 | 38.04338 | 23.87534 | 34376 ft | 387 kts | 324° |
| 2026-05-05 16:10 | 38.06550 | 23.85595 | 34642 ft | 387 kts | 324° |
| 2026-05-05 16:10 | 38.08016 | 23.84309 | 34823 ft | 387 kts | 324° |
| 2026-05-05 16:10 | 38.10227 | 23.82364 | 35082 ft | 387 kts | 324° |
| 2026-05-05 16:11 | 38.12438 | 23.80418 | 35337 ft | 387 kts | 324° |
| 2026-05-05 16:11 | 38.19702 | 23.76048 | 35980 ft | 394 kts | 346° |
| 2026-05-05 16:12 | 38.22424 | 23.75602 | 36037 ft | 394 kts | 349° |
| 2026-05-05 16:13 | 38.35985 | 23.73646 | 36046 ft | 391 kts | 349° |
| 2026-05-05 16:13 | 38.41393 | 23.72851 | 36046 ft | 391 kts | 349° |
| 2026-05-05 16:14 | 38.52218 | 23.71279 | 36043 ft | 392 kts | 349° |
| 2026-05-05 16:15 | 38.63055 | 23.69702 | 36042 ft | 392 kts | 349° |
| 2026-05-05 16:16 | 38.73882 | 23.68114 | 36037 ft | 392 kts | 349° |
| 2026-05-05 16:17 | 38.82007 | 23.66929 | 36037 ft | 392 kts | 349° |
| 2026-05-05 16:18 | 38.90133 | 23.65725 | 36048 ft | 392 kts | 349° |
| 2026-05-05 16:19 | 38.98264 | 23.64524 | 36042 ft | 393 kts | 349° |
| 2026-05-05 16:19 | 39.06588 | 23.63295 | 36036 ft | 407 kts | 349° |
| 2026-05-05 16:20 | 39.17871 | 23.61498 | 36028 ft | 406 kts | 343° |
| 2026-05-05 16:22 | 39.31099 | 23.55331 | 36033 ft | 405 kts | 337° |
| 2026-05-05 16:23 | 39.41607 | 23.50235 | 36270 ft | 404 kts | 337° |
| 2026-05-05 16:23 | 39.44238 | 23.48964 | 36509 ft | 404 kts | 338° |
| 2026-05-05 16:23 | 39.49498 | 23.46427 | 36928 ft | 403 kts | 338° |
| 2026-05-05 16:24 | 39.52126 | 23.45156 | 37121 ft | 403 kts | 338° |
| 2026-05-05 16:24 | 39.54753 | 23.43882 | 37320 ft | 403 kts | 338° |
| 2026-05-05 16:24 | 39.59995 | 23.41336 | 37725 ft | 402 kts | 338° |
| 2026-05-05 16:25 | 39.62614 | 23.40059 | 37932 ft | 402 kts | 338° |
| 2026-05-05 16:25 | 39.70473 | 23.36227 | 38024 ft | 402 kts | 338° |
| 2026-05-05 16:26 | 39.80947 | 23.31111 | 38020 ft | 401 kts | 337° |
| 2026-05-05 16:27 | 39.86168 | 23.28550 | 38021 ft | 401 kts | 337° |
| 2026-05-05 16:27 | 39.91388 | 23.25986 | 38025 ft | 401 kts | 337° |
| 2026-05-05 16:28 | 39.96612 | 23.23421 | 38020 ft | 401 kts | 337° |
| 2026-05-05 16:28 | 40.01838 | 23.20849 | 38033 ft | 401 kts | 337° |
| 2026-05-05 16:29 | 40.07069 | 23.18277 | 38029 ft | 402 kts | 337° |
| 2026-05-05 16:29 | 40.12303 | 23.15702 | 38027 ft | 402 kts | 337° |
| 2026-05-05 16:30 | 40.17538 | 23.13115 | 38025 ft | 402 kts | 337° |
| 2026-05-05 16:30 | 40.22771 | 23.10523 | 37998 ft | 402 kts | 337° |
| 2026-05-05 16:31 | 40.28010 | 23.07911 | 37998 ft | 403 kts | 337° |
| 2026-05-05 16:31 | 40.33254 | 23.05293 | 37997 ft | 404 kts | 337° |
| 2026-05-05 16:32 | 40.38511 | 23.02678 | 38000 ft | 404 kts | 337° |
| 2026-05-05 16:32 | 40.43774 | 23.00056 | 38004 ft | 405 kts | 337° |
| 2026-05-05 16:33 | 40.48842 | 22.96907 | 38007 ft | 403 kts | 331° |
| 2026-05-05 16:33 | 40.53794 | 22.93446 | 38007 ft | 403 kts | 331° |
| 2026-05-05 16:34 | 40.58748 | 22.89981 | 38008 ft | 403 kts | 331° |
| 2026-05-05 16:34 | 40.63663 | 22.86533 | 38005 ft | 403 kts | 330° |
| 2026-05-05 16:35 | 40.68614 | 22.83055 | 38002 ft | 403 kts | 331° |
| 2026-05-05 16:35 | 40.73567 | 22.79569 | 38007 ft | 404 kts | 331° |
| 2026-05-05 16:36 | 40.78527 | 22.76077 | 37972 ft | 404 kts | 330° |
| 2026-05-05 16:36 | 40.83492 | 22.72573 | 37974 ft | 404 kts | 330° |
| 2026-05-05 16:37 | 40.88452 | 22.69061 | 37975 ft | 404 kts | 330° |
| 2026-05-05 16:37 | 40.93412 | 22.65546 | 37977 ft | 405 kts | 330° |
| 2026-05-05 16:38 | 40.98378 | 22.62020 | 37985 ft | 405 kts | 330° |
| 2026-05-05 16:38 | 41.03353 | 22.58491 | 37985 ft | 406 kts | 330° |
| 2026-05-05 16:39 | 41.08335 | 22.54944 | 37990 ft | 407 kts | 330° |
| 2026-05-05 16:39 | 41.13258 | 22.51264 | 37990 ft | 406 kts | 324° |
| 2026-05-05 16:40 | 41.17672 | 22.46598 | 37989 ft | 406 kts | 321° |
| 2026-05-05 16:40 | 41.22076 | 22.41905 | 37988 ft | 406 kts | 321° |
| 2026-05-05 16:41 | 41.26481 | 22.37208 | 37989 ft | 406 kts | 321° |
| 2026-05-05 16:41 | 41.30886 | 22.32494 | 37994 ft | 406 kts | 321° |
| 2026-05-05 16:42 | 41.35285 | 22.27769 | 37998 ft | 407 kts | 321° |
| 2026-05-05 16:42 | 41.39688 | 22.23041 | 37995 ft | 407 kts | 321° |
| 2026-05-05 16:43 | 41.44087 | 22.18303 | 38008 ft | 407 kts | 321° |
| 2026-05-05 16:43 | 41.48495 | 22.13553 | 37993 ft | 408 kts | 321° |
| 2026-05-05 16:44 | 41.52911 | 22.08786 | 37980 ft | 409 kts | 320° |
| 2026-05-05 16:44 | 41.57300 | 22.04040 | 37990 ft | 409 kts | 320° |
| 2026-05-05 16:45 | 41.61717 | 21.99248 | 37990 ft | 409 kts | 320° |
| 2026-05-05 16:45 | 41.66137 | 21.94439 | 37997 ft | 410 kts | 320° |
| 2026-05-05 16:46 | 41.70563 | 21.89628 | 38009 ft | 410 kts | 320° |
| 2026-05-05 16:46 | 41.74992 | 21.84804 | 38006 ft | 411 kts | 320° |
| 2026-05-05 16:47 | 41.79421 | 21.79966 | 38010 ft | 411 kts | 320° |
| 2026-05-05 16:47 | 41.83851 | 21.75120 | 38001 ft | 411 kts | 320° |
| 2026-05-05 16:48 | 41.88280 | 21.70267 | 38011 ft | 411 kts | 320° |
| 2026-05-05 16:48 | 41.92703 | 21.65410 | 38012 ft | 411 kts | 320° |
| 2026-05-05 16:49 | 41.97125 | 21.60542 | 38006 ft | 411 kts | 320° |
| 2026-05-05 16:49 | 42.01553 | 21.55659 | 37993 ft | 412 kts | 320° |
| 2026-05-05 16:50 | 42.05989 | 21.50752 | 37999 ft | 413 kts | 320° |
| 2026-05-05 16:50 | 42.10428 | 21.45835 | 38003 ft | 413 kts | 320° |
| 2026-05-05 16:51 | 42.14873 | 21.40912 | 38000 ft | 414 kts | 319° |
| 2026-05-05 16:51 | 42.18778 | 21.35243 | 38011 ft | 413 kts | 310° |
| 2026-05-05 16:52 | 42.22511 | 21.29325 | 38017 ft | 415 kts | 311° |
| 2026-05-05 16:52 | 42.26261 | 21.23391 | 38020 ft | 416 kts | 311° |
| 2026-05-05 16:53 | 42.30016 | 21.17434 | 38020 ft | 417 kts | 311° |
| 2026-05-05 16:53 | 42.33762 | 21.11454 | 38030 ft | 417 kts | 310° |
| 2026-05-05 16:54 | 42.37502 | 21.05461 | 38039 ft | 417 kts | 310° |
| 2026-05-05 16:54 | 42.41238 | 20.99471 | 38046 ft | 416 kts | 310° |
| 2026-05-05 16:55 | 42.44948 | 20.93531 | 38047 ft | 416 kts | 310° |
| 2026-05-05 16:55 | 42.48681 | 20.87534 | 38052 ft | 416 kts | 310° |
| 2026-05-05 16:56 | 42.51782 | 20.82544 | 38039 ft | 417 kts | 310° |
| 2026-05-05 16:56 | 42.55515 | 20.76518 | 38028 ft | 417 kts | 310° |
| 2026-05-05 16:57 | 42.59243 | 20.70483 | 38026 ft | 417 kts | 310° |
| 2026-05-05 16:57 | 42.62970 | 20.64445 | 38027 ft | 417 kts | 310° |
| 2026-05-05 16:58 | 42.66692 | 20.58402 | 38025 ft | 417 kts | 310° |
| 2026-05-05 16:58 | 42.70417 | 20.52347 | 38026 ft | 417 kts | 310° |
| 2026-05-05 16:59 | 42.74137 | 20.46290 | 38022 ft | 417 kts | 309° |
| 2026-05-05 16:59 | 42.77855 | 20.40223 | 38022 ft | 418 kts | 309° |
| 2026-05-05 17:00 | 42.81568 | 20.34137 | 38011 ft | 419 kts | 309° |
| 2026-05-05 17:00 | 42.85624 | 20.28450 | 38022 ft | 420 kts | 317° |
| 2026-05-05 17:01 | 42.90015 | 20.23192 | 38021 ft | 420 kts | 318° |
| 2026-05-05 17:01 | 42.94405 | 20.17930 | 38027 ft | 420 kts | 317° |
| 2026-05-05 17:02 | 42.98789 | 20.12649 | 38010 ft | 421 kts | 317° |
| 2026-05-05 17:02 | 43.03166 | 20.07349 | 38020 ft | 420 kts | 317° |
| 2026-05-05 17:03 | 43.07540 | 20.02043 | 38021 ft | 420 kts | 317° |
| 2026-05-05 17:03 | 43.11914 | 19.96738 | 38023 ft | 420 kts | 317° |
| 2026-05-05 17:04 | 43.16259 | 19.91462 | 38029 ft | 420 kts | 317° |
| 2026-05-05 17:04 | 43.20634 | 19.86143 | 38028 ft | 420 kts | 317° |
| 2026-05-05 17:05 | 43.24998 | 19.80810 | 38036 ft | 420 kts | 317° |
| 2026-05-05 17:05 | 43.29356 | 19.75464 | 38036 ft | 421 kts | 317° |
| 2026-05-05 17:06 | 43.33726 | 19.70119 | 38037 ft | 421 kts | 317° |
| 2026-05-05 17:06 | 43.38093 | 19.64763 | 38033 ft | 421 kts | 317° |
| 2026-05-05 17:07 | 43.42452 | 19.59387 | 38041 ft | 421 kts | 317° |
| 2026-05-05 17:07 | 43.46812 | 19.54020 | 38031 ft | 420 kts | 316° |
| 2026-05-05 17:08 | 43.51165 | 19.48647 | 38045 ft | 420 kts | 316° |
| 2026-05-05 17:08 | 43.55516 | 19.43258 | 38029 ft | 421 kts | 316° |
| 2026-05-05 17:09 | 43.59872 | 19.37859 | 38029 ft | 421 kts | 316° |
| 2026-05-05 17:09 | 43.64231 | 19.32443 | 38028 ft | 422 kts | 316° |
| 2026-05-05 17:10 | 43.68590 | 19.27014 | 38036 ft | 422 kts | 316° |
| 2026-05-05 17:10 | 43.72946 | 19.21585 | 38040 ft | 421 kts | 316° |
| 2026-05-05 17:11 | 43.77298 | 19.16148 | 38038 ft | 422 kts | 316° |
| 2026-05-05 17:11 | 43.81651 | 19.10692 | 38034 ft | 423 kts | 316° |
| 2026-05-05 17:12 | 43.86008 | 19.05210 | 38028 ft | 423 kts | 315° |
| 2026-05-05 17:12 | 43.90366 | 18.99725 | 38043 ft | 423 kts | 316° |
| 2026-05-05 17:13 | 43.94725 | 18.94235 | 38041 ft | 423 kts | 315° |
| 2026-05-05 17:13 | 43.99083 | 18.88736 | 38044 ft | 423 kts | 315° |
| 2026-05-05 17:14 | 44.03443 | 18.83225 | 38039 ft | 424 kts | 316° |
| 2026-05-05 17:14 | 44.07806 | 18.77693 | 38036 ft | 425 kts | 315° |
| 2026-05-05 17:15 | 44.12172 | 18.72140 | 38041 ft | 425 kts | 315° |
| 2026-05-05 17:15 | 44.16535 | 18.66577 | 38034 ft | 425 kts | 315° |
| 2026-05-05 17:16 | 44.20898 | 18.61007 | 38035 ft | 425 kts | 315° |
| 2026-05-05 17:16 | 44.25263 | 18.55435 | 38030 ft | 426 kts | 315° |
| 2026-05-05 17:17 | 44.29623 | 18.49835 | 38020 ft | 426 kts | 315° |
| 2026-05-05 17:17 | 44.33985 | 18.44218 | 38003 ft | 427 kts | 315° |
| 2026-05-05 17:18 | 44.38353 | 18.38595 | 38004 ft | 427 kts | 315° |
| 2026-05-05 17:18 | 44.42727 | 18.32967 | 38009 ft | 427 kts | 315° |
| 2026-05-05 17:19 | 44.47096 | 18.27324 | 38007 ft | 427 kts | 315° |
| 2026-05-05 17:19 | 44.51460 | 18.21670 | 38017 ft | 428 kts | 315° |
| 2026-05-05 17:20 | 44.55827 | 18.16005 | 37999 ft | 428 kts | 315° |
| 2026-05-05 17:20 | 44.60193 | 18.10318 | 37997 ft | 428 kts | 315° |
| 2026-05-05 17:21 | 44.64561 | 18.04617 | 37992 ft | 429 kts | 315° |
| 2026-05-05 17:22 | 44.71111 | 17.96062 | 38000 ft | 428 kts | 314° |
| 2026-05-05 17:22 | 44.75465 | 17.90339 | 38007 ft | 428 kts | 314° |
| 2026-05-05 17:23 | 44.79823 | 17.84608 | 37998 ft | 429 kts | 314° |
| 2026-05-05 17:23 | 44.84183 | 17.78867 | 37992 ft | 429 kts | 314° |
| 2026-05-05 17:24 | 44.88553 | 17.73115 | 37991 ft | 430 kts | 314° |
| 2026-05-05 17:24 | 44.92913 | 17.67351 | 37998 ft | 430 kts | 314° |
| 2026-05-05 17:25 | 44.97266 | 17.61572 | 38005 ft | 429 kts | 314° |
| 2026-05-05 17:25 | 45.01620 | 17.55789 | 37992 ft | 430 kts | 314° |
| 2026-05-05 17:26 | 45.05976 | 17.50004 | 37986 ft | 430 kts | 314° |
| 2026-05-05 17:26 | 45.10338 | 17.44198 | 37985 ft | 431 kts | 314° |
| 2026-05-05 17:27 | 45.14692 | 17.38362 | 37979 ft | 431 kts | 314° |
| 2026-05-05 17:27 | 45.19037 | 17.32490 | 37984 ft | 432 kts | 313° |
| 2026-05-05 17:28 | 45.23372 | 17.26592 | 37986 ft | 432 kts | 313° |
| 2026-05-05 17:28 | 45.27710 | 17.20686 | 37999 ft | 433 kts | 313° |
| 2026-05-05 17:29 | 45.32058 | 17.14771 | 37991 ft | 433 kts | 313° |
| 2026-05-05 17:29 | 45.36415 | 17.08839 | 37993 ft | 434 kts | 313° |
| 2026-05-05 17:30 | 45.40767 | 17.02891 | 37990 ft | 434 kts | 313° |
| 2026-05-05 17:30 | 45.45113 | 16.96921 | 37995 ft | 434 kts | 313° |
| 2026-05-05 17:31 | 45.49454 | 16.90944 | 38006 ft | 434 kts | 313° |
| 2026-05-05 17:31 | 45.53795 | 16.84962 | 37999 ft | 434 kts | 313° |
| 2026-05-05 17:32 | 45.58141 | 16.78980 | 37997 ft | 434 kts | 313° |
| 2026-05-05 17:32 | 45.62472 | 16.72989 | 37992 ft | 434 kts | 313° |
| 2026-05-05 17:33 | 45.66811 | 16.66972 | 37999 ft | 434 kts | 313° |
| 2026-05-05 17:33 | 45.71128 | 16.60970 | 37999 ft | 433 kts | 313° |
| 2026-05-05 17:34 | 45.75444 | 16.54948 | 37999 ft | 433 kts | 313° |
| 2026-05-05 17:34 | 45.79765 | 16.48928 | 38009 ft | 433 kts | 313° |
| 2026-05-05 17:35 | 45.84085 | 16.42896 | 38017 ft | 434 kts | 313° |
| 2026-05-05 17:35 | 45.88398 | 16.36848 | 38007 ft | 434 kts | 313° |
| 2026-05-05 17:36 | 45.92708 | 16.30789 | 38006 ft | 434 kts | 313° |
| 2026-05-05 17:36 | 45.97018 | 16.24717 | 38012 ft | 434 kts | 313° |
| 2026-05-05 17:37 | 46.01322 | 16.18634 | 37999 ft | 434 kts | 312° |
| 2026-05-05 17:37 | 46.05617 | 16.12536 | 38010 ft | 434 kts | 312° |
| 2026-05-05 17:38 | 46.09921 | 16.06432 | 38007 ft | 434 kts | 312° |
| 2026-05-05 17:38 | 46.14196 | 16.00356 | 37997 ft | 435 kts | 312° |
| 2026-05-05 17:39 | 46.18496 | 15.94220 | 37984 ft | 435 kts | 312° |
| 2026-05-05 17:39 | 46.22802 | 15.88075 | 37983 ft | 435 kts | 312° |
| 2026-05-05 17:40 | 46.27108 | 15.81921 | 37981 ft | 435 kts | 312° |
| 2026-05-05 17:40 | 46.31493 | 15.75863 | 37978 ft | 436 kts | 314° |
| 2026-05-05 17:41 | 46.35185 | 15.70892 | 37968 ft | 436 kts | 314° |
| 2026-05-05 17:41 | 46.39631 | 15.64910 | 37966 ft | 436 kts | 314° |
| 2026-05-05 17:42 | 46.44058 | 15.58892 | 37964 ft | 436 kts | 314° |
| 2026-05-05 17:42 | 46.48462 | 15.52842 | 37964 ft | 436 kts | 314° |
| 2026-05-05 17:43 | 46.52868 | 15.46782 | 37965 ft | 436 kts | 313° |
| 2026-05-05 17:43 | 46.57271 | 15.40722 | 37962 ft | 436 kts | 314° |
| 2026-05-05 17:44 | 46.61674 | 15.34651 | 37953 ft | 436 kts | 314° |
| 2026-05-05 17:44 | 46.66077 | 15.28569 | 37941 ft | 436 kts | 314° |
| 2026-05-05 17:45 | 46.70470 | 15.22482 | 37922 ft | 436 kts | 313° |
| 2026-05-05 17:45 | 46.74856 | 15.16382 | 37921 ft | 436 kts | 313° |
| 2026-05-05 17:46 | 46.79246 | 15.10272 | 37920 ft | 437 kts | 313° |
| 2026-05-05 17:46 | 46.83639 | 15.04148 | 37924 ft | 437 kts | 313° |
| 2026-05-05 17:47 | 46.88022 | 14.98012 | 37941 ft | 436 kts | 313° |
| 2026-05-05 17:47 | 46.92392 | 14.91880 | 37921 ft | 436 kts | 312° |
| 2026-05-05 17:48 | 46.96758 | 14.85737 | 37914 ft | 435 kts | 313° |
| 2026-05-05 17:48 | 47.01120 | 14.79590 | 37886 ft | 437 kts | 313° |
| 2026-05-05 17:49 | 47.05505 | 14.73403 | 37888 ft | 438 kts | 313° |
| 2026-05-05 17:49 | 47.09887 | 14.67193 | 37901 ft | 438 kts | 312° |
| 2026-05-05 17:50 | 47.14275 | 14.60972 | 37898 ft | 438 kts | 312° |
| 2026-05-05 17:50 | 47.18653 | 14.54736 | 37912 ft | 439 kts | 312° |
| 2026-05-05 17:51 | 47.23037 | 14.48483 | 37894 ft | 439 kts | 312° |
| 2026-05-05 17:51 | 47.27419 | 14.42213 | 37888 ft | 440 kts | 312° |
| 2026-05-05 17:52 | 47.31804 | 14.35928 | 37879 ft | 440 kts | 312° |
| 2026-05-05 17:52 | 47.36193 | 14.29625 | 37857 ft | 441 kts | 312° |
| 2026-05-05 17:53 | 47.40584 | 14.23299 | 37866 ft | 441 kts | 312° |
| 2026-05-05 17:53 | 47.44973 | 14.16964 | 37841 ft | 441 kts | 312° |
| 2026-05-05 17:54 | 47.49364 | 14.10610 | 37842 ft | 442 kts | 311° |
| 2026-05-05 17:54 | 47.53747 | 14.04246 | 37822 ft | 441 kts | 312° |
| 2026-05-05 17:55 | 47.58129 | 13.97874 | 37829 ft | 442 kts | 311° |
| 2026-05-05 17:55 | 47.62515 | 13.91495 | 37829 ft | 442 kts | 311° |
| 2026-05-05 17:56 | 47.66896 | 13.85086 | 37795 ft | 443 kts | 311° |
| 2026-05-05 17:56 | 47.71281 | 13.78654 | 37793 ft | 444 kts | 311° |
| 2026-05-05 17:57 | 47.75668 | 13.72207 | 37790 ft | 444 kts | 311° |
| 2026-05-05 17:57 | 47.80055 | 13.65743 | 37790 ft | 444 kts | 311° |
| 2026-05-05 17:58 | 47.84441 | 13.59267 | 37800 ft | 444 kts | 311° |
| 2026-05-05 17:58 | 47.88829 | 13.52770 | 37790 ft | 445 kts | 311° |
| 2026-05-05 17:59 | 47.93220 | 13.46258 | 37797 ft | 446 kts | 311° |
| 2026-05-05 17:59 | 47.97610 | 13.39724 | 37786 ft | 446 kts | 311° |
| 2026-05-05 18:00 | 48.01991 | 13.33177 | 37793 ft | 446 kts | 311° |
| 2026-05-05 18:00 | 48.06374 | 13.26620 | 37793 ft | 446 kts | 311° |
| 2026-05-05 18:01 | 48.10608 | 13.19861 | 37786 ft | 441 kts | 300° |
| 2026-05-05 18:01 | 48.13871 | 13.12100 | 37780 ft | 441 kts | 298° |
| 2026-05-05 18:02 | 48.17099 | 13.04282 | 37784 ft | 442 kts | 298° |
| 2026-05-05 18:02 | 48.20326 | 12.96440 | 37786 ft | 442 kts | 298° |
| 2026-05-05 18:03 | 48.23531 | 12.88640 | 37827 ft | 443 kts | 297° |
| 2026-05-05 18:03 | 48.26782 | 12.80714 | 37818 ft | 444 kts | 297° |
| 2026-05-05 18:04 | 48.30021 | 12.72804 | 37818 ft | 444 kts | 297° |
| 2026-05-05 18:04 | 48.33255 | 12.64887 | 37816 ft | 445 kts | 297° |
| 2026-05-05 18:05 | 48.36481 | 12.56951 | 37828 ft | 445 kts | 297° |
| 2026-05-05 18:05 | 48.39704 | 12.49004 | 37830 ft | 445 kts | 297° |
| 2026-05-05 18:06 | 48.42903 | 12.41098 | 37834 ft | 445 kts | 297° |
| 2026-05-05 18:06 | 48.46130 | 12.33089 | 37838 ft | 445 kts | 297° |
| 2026-05-05 18:07 | 48.49314 | 12.25170 | 37836 ft | 445 kts | 297° |
| 2026-05-05 18:07 | 48.52536 | 12.17132 | 37862 ft | 445 kts | 297° |
| 2026-05-05 18:08 | 48.55725 | 12.09131 | 37843 ft | 445 kts | 297° |
| 2026-05-05 18:08 | 48.58916 | 12.01120 | 37844 ft | 445 kts | 297° |
| 2026-05-05 18:09 | 48.62105 | 11.93096 | 37834 ft | 445 kts | 297° |
| 2026-05-05 18:09 | 48.65286 | 11.85056 | 37832 ft | 445 kts | 296° |
| 2026-05-05 18:10 | 48.68454 | 11.77001 | 37825 ft | 446 kts | 296° |
| 2026-05-05 18:10 | 48.71630 | 11.68925 | 37817 ft | 448 kts | 296° |
| 2026-05-05 18:11 | 48.74821 | 11.60822 | 37807 ft | 449 kts | 296° |
| 2026-05-05 18:11 | 48.77994 | 11.52728 | 37806 ft | 448 kts | 296° |
| 2026-05-05 18:12 | 48.81173 | 11.44575 | 37805 ft | 448 kts | 296° |
| 2026-05-05 18:12 | 48.84344 | 11.36388 | 37618 ft | 452 kts | 296° |
| 2026-05-05 18:12 | 48.85929 | 11.32290 | 37259 ft | 448 kts | 296° |
| 2026-05-05 18:13 | 48.87504 | 11.28224 | 36911 ft | 446 kts | 296° |
| 2026-05-05 18:13 | 48.89073 | 11.24179 | 36554 ft | 443 kts | 296° |
| 2026-05-05 18:13 | 48.90654 | 11.20101 | 36046 ft | 440 kts | 296° |
| 2026-05-05 18:13 | 48.92179 | 11.16163 | 35543 ft | 436 kts | 295° |
| 2026-05-05 18:14 | 48.93710 | 11.12198 | 35046 ft | 432 kts | 295° |
| 2026-05-05 18:14 | 48.95256 | 11.08312 | 34569 ft | 431 kts | 299° |
| 2026-05-05 18:14 | 48.97083 | 11.04679 | 34089 ft | 432 kts | 306° |
| 2026-05-05 18:14 | 48.99186 | 11.01416 | 33626 ft | 433 kts | 314° |
| 2026-05-05 18:15 | 49.01401 | 10.98316 | 33074 ft | 431 kts | 314° |
| 2026-05-05 18:15 | 49.03605 | 10.95227 | 32559 ft | 429 kts | 314° |
| 2026-05-05 18:15 | 49.05793 | 10.92151 | 32031 ft | 427 kts | 314° |
| 2026-05-05 18:15 | 49.08001 | 10.89040 | 31509 ft | 425 kts | 314° |
| 2026-05-05 18:16 | 49.10164 | 10.85987 | 31007 ft | 423 kts | 314° |
| 2026-05-05 18:16 | 49.12286 | 10.82992 | 30536 ft | 420 kts | 314° |
| 2026-05-05 18:16 | 49.14411 | 10.79891 | 29565 ft | 428 kts | 313° |
| 2026-05-05 18:16 | 49.16547 | 10.76655 | 28615 ft | 434 kts | 312° |
| 2026-05-05 18:17 | 49.18655 | 10.73399 | 28160 ft | 428 kts | 311° |
| 2026-05-05 18:17 | 49.20735 | 10.70176 | 27606 ft | 424 kts | 312° |
| 2026-05-05 18:17 | 49.22799 | 10.66989 | 27082 ft | 419 kts | 312° |
| 2026-05-05 18:17 | 49.24846 | 10.63844 | 26577 ft | 415 kts | 312° |
| 2026-05-05 18:18 | 49.26872 | 10.60740 | 26092 ft | 410 kts | 313° |
| 2026-05-05 18:18 | 49.28876 | 10.57671 | 25619 ft | 406 kts | 313° |
| 2026-05-05 18:18 | 49.30865 | 10.54621 | 25131 ft | 402 kts | 313° |
| 2026-05-05 18:18 | 49.32833 | 10.51602 | 24658 ft | 399 kts | 313° |
| 2026-05-05 18:19 | 49.34787 | 10.48605 | 24173 ft | 396 kts | 313° |
| 2026-05-05 18:19 | 49.36499 | 10.45364 | 23833 ft | 388 kts | 302° |
| 2026-05-05 18:19 | 49.38047 | 10.41968 | 23603 ft | 387 kts | 303° |
| 2026-05-05 18:19 | 49.39597 | 10.38600 | 23360 ft | 386 kts | 303° |
| 2026-05-05 18:20 | 49.41144 | 10.35244 | 23077 ft | 384 kts | 303° |
| 2026-05-05 18:20 | 49.42185 | 10.32983 | 22900 ft | 383 kts | 303° |
| 2026-05-05 18:20 | 49.44207 | 10.28581 | 22566 ft | 379 kts | 303° |
| 2026-05-05 18:20 | 49.45718 | 10.25276 | 22299 ft | 377 kts | 303° |
| 2026-05-05 18:21 | 49.47216 | 10.21985 | 22028 ft | 375 kts | 302° |
| 2026-05-05 18:21 | 49.48705 | 10.18713 | 21767 ft | 372 kts | 302° |
| 2026-05-05 18:21 | 49.50183 | 10.15459 | 21505 ft | 371 kts | 302° |
| 2026-05-05 18:21 | 49.51656 | 10.12212 | 21243 ft | 368 kts | 302° |
| 2026-05-05 18:22 | 49.53117 | 10.08987 | 20981 ft | 367 kts | 303° |
| 2026-05-05 18:22 | 49.54575 | 10.05769 | 20722 ft | 366 kts | 303° |
| 2026-05-05 18:22 | 49.56026 | 10.02559 | 20474 ft | 364 kts | 302° |
| 2026-05-05 18:22 | 49.57469 | 9.99362 | 20197 ft | 361 kts | 302° |
| 2026-05-05 18:23 | 49.58894 | 9.96204 | 19800 ft | 358 kts | 302° |
| 2026-05-05 18:23 | 49.59852 | 9.94075 | 19479 ft | 357 kts | 302° |
| 2026-05-05 18:23 | 49.61722 | 9.89919 | 18879 ft | 356 kts | 302° |
| 2026-05-05 18:23 | 49.62673 | 9.87802 | 18566 ft | 355 kts | 302° |
| 2026-05-05 18:24 | 49.64077 | 9.84672 | 18101 ft | 354 kts | 302° |
| 2026-05-05 18:24 | 49.65475 | 9.81546 | 17607 ft | 353 kts | 302° |
| 2026-05-05 18:24 | 49.66861 | 9.78448 | 17161 ft | 350 kts | 302° |
| 2026-05-05 18:24 | 49.68240 | 9.75371 | 16713 ft | 347 kts | 302° |
| 2026-05-05 18:25 | 49.69604 | 9.72322 | 16276 ft | 344 kts | 302° |
| 2026-05-05 18:25 | 49.70502 | 9.70313 | 15993 ft | 342 kts | 302° |
| 2026-05-05 18:25 | 49.72302 | 9.66283 | 15429 ft | 339 kts | 302° |
| 2026-05-05 18:25 | 49.73637 | 9.63288 | 15006 ft | 337 kts | 302° |
| 2026-05-05 18:26 | 49.74963 | 9.60307 | 14584 ft | 336 kts | 302° |
| 2026-05-05 18:26 | 49.76265 | 9.57380 | 14166 ft | 334 kts | 302° |
| 2026-05-05 18:26 | 49.77595 | 9.54389 | 13746 ft | 332 kts | 302° |
| 2026-05-05 18:26 | 49.78901 | 9.51442 | 13292 ft | 331 kts | 301° |
| 2026-05-05 18:27 | 49.80341 | 9.48680 | 12839 ft | 330 kts | 312° |
| 2026-05-05 18:27 | 49.81970 | 9.46269 | 12463 ft | 327 kts | 314° |
| 2026-05-05 18:27 | 49.83643 | 9.43839 | 12065 ft | 324 kts | 314° |
| 2026-05-05 18:27 | 49.85280 | 9.41462 | 11689 ft | 322 kts | 314° |
| 2026-05-05 18:28 | 49.88523 | 9.36745 | 10942 ft | 318 kts | 314° |
| 2026-05-05 18:28 | 49.90133 | 9.34399 | 10567 ft | 317 kts | 314° |
| 2026-05-05 18:28 | 49.91731 | 9.32066 | 10203 ft | 315 kts | 314° |
| 2026-05-05 18:29 | 49.93304 | 9.29768 | 9849 ft | 313 kts | 314° |
| 2026-05-05 18:29 | 49.94905 | 9.27425 | 9462 ft | 312 kts | 314° |
| 2026-05-05 18:29 | 49.96450 | 9.25163 | 9069 ft | 304 kts | 314° |
| 2026-05-05 18:29 | 49.97951 | 9.22969 | 8668 ft | 290 kts | 314° |
| 2026-05-05 18:30 | 49.99406 | 9.20843 | 8270 ft | 285 kts | 314° |
| 2026-05-05 18:30 | 50.00841 | 9.18746 | 7879 ft | 282 kts | 314° |
| 2026-05-05 18:30 | 50.02264 | 9.16660 | 7450 ft | 280 kts | 314° |
| 2026-05-05 18:30 | 50.03679 | 9.14581 | 7033 ft | 278 kts | 314° |
| 2026-05-05 18:31 | 50.05078 | 9.12527 | 6619 ft | 275 kts | 314° |
| 2026-05-05 18:31 | 50.06468 | 9.10491 | 6195 ft | 274 kts | 314° |
| 2026-05-05 18:31 | 50.07829 | 9.08425 | 5763 ft | 271 kts | 307° |
| 2026-05-05 18:31 | 50.08693 | 9.05916 | 5337 ft | 259 kts | 287° |
| 2026-05-05 18:32 | 50.09228 | 9.03295 | 4990 ft | 249 kts | 284° |
| 2026-05-05 18:32 | 50.09712 | 9.00760 | 4678 ft | 239 kts | 284° |
| 2026-05-05 18:32 | 50.10173 | 8.98324 | 4450 ft | 231 kts | 284° |
| 2026-05-05 18:32 | 50.10620 | 8.95934 | 4256 ft | 229 kts | 284° |
| 2026-05-05 18:33 | 50.11061 | 8.93555 | 4117 ft | 228 kts | 284° |
| 2026-05-05 18:33 | 50.11397 | 8.91151 | 4017 ft | 226 kts | 270° |
| 2026-05-05 18:33 | 50.11132 | 8.88770 | 4009 ft | 224 kts | 249° |
| 2026-05-05 18:33 | 50.10601 | 8.86526 | 3992 ft | 215 kts | 249° |
| 2026-05-05 18:34 | 50.10092 | 8.84372 | 3801 ft | 210 kts | 249° |
| 2026-05-05 18:34 | 50.09590 | 8.82243 | 3547 ft | 209 kts | 250° |
| 2026-05-05 18:34 | 50.09096 | 8.80148 | 3285 ft | 205 kts | 250° |
| 2026-05-05 18:34 | 50.08624 | 8.78145 | 3011 ft | 190 kts | 250° |
| 2026-05-05 18:35 | 50.08184 | 8.76284 | 2774 ft | 177 kts | 250° |
| 2026-05-05 18:35 | 50.07768 | 8.74523 | 2524 ft | 171 kts | 250° |
| 2026-05-05 18:35 | 50.07362 | 8.72804 | 2296 ft | 169 kts | 250° |
| 2026-05-05 18:35 | 50.06957 | 8.71094 | 2068 ft | 168 kts | 250° |
| 2026-05-05 18:36 | 50.06558 | 8.69408 | 1857 ft | 158 kts | 250° |
| 2026-05-05 18:36 | 50.06198 | 8.67894 | 1645 ft | 142 kts | 250° |
| 2026-05-05 18:36 | 50.05867 | 8.66496 | 1453 ft | 135 kts | 249° |
| 2026-05-05 18:36 | 50.05544 | 8.65135 | 1272 ft | 133 kts | 249° |
| 2026-05-05 18:37 | 50.05224 | 8.63787 | 1090 ft | 133 kts | 250° |
| 2026-05-05 18:37 | 50.04903 | 8.62437 | 920 ft | 133 kts | 249° |
| 2026-05-05 18:37 | 50.04582 | 8.61091 | 739 ft | 133 kts | 249° |
| 2026-05-05 18:37 | 50.04264 | 8.59748 | 571 ft | 133 kts | 250° |
| 2026-05-05 18:38 | 50.03945 | 8.58392 | 394 ft | 133 kts | 249° |
| 2026-05-05 18:38 | 50.03646 | 8.57165 | 359 ft | 102 kts | 250° |
| 2026-05-05 18:38 | 50.03464 | 8.56382 | 353 ft | 52 kts | 250° |
| 2026-05-05 18:38 | 50.03438 | 8.56068 | 354 ft | 28 kts | 274° |
| 2026-05-05 18:39 | 50.03453 | 8.55920 | 349 ft | 8 kts | 279° |
| 2026-05-05 18:39 | 50.03472 | 8.55744 | 344 ft | 24 kts | 280° |
| 2026-05-05 18:39 | 50.03496 | 8.55440 | 345 ft | 21 kts | 251° |
| 2026-05-05 18:39 | 50.03451 | 8.55298 | 346 ft | 12 kts | 249° |
| 2026-05-05 18:40 | 50.03417 | 8.55156 | 350 ft | 15 kts | 249° |
| 2026-05-05 18:40 | 50.03376 | 8.54985 | 350 ft | 18 kts | 250° |
| 2026-05-05 18:40 | 50.03327 | 8.54780 | 338 ft | 22 kts | 250° |
| 2026-05-05 18:40 | 50.03278 | 8.54574 | 334 ft | 14 kts | 251° |
| 2026-05-05 18:41 | 50.03324 | 8.54474 | 335 ft | 8 kts | 339° |
| 2026-05-05 18:41 | 50.03368 | 8.54449 | 339 ft | 5 kts | 340° |
| 2026-05-05 18:41 | 50.03399 | 8.54431 | 340 ft | 6 kts | 340° |
| 2026-05-05 18:41 | 50.03457 | 8.54398 | 348 ft | 10 kts | 340° |
| 2026-05-05 18:42 | 50.03542 | 8.54349 | 348 ft | 14 kts | 339° |
| 2026-05-05 18:42 | 50.03613 | 8.54308 | 347 ft | 7 kts | 339° |
| 2026-05-05 18:42 | 50.03647 | 8.54306 | 347 ft | 3 kts | 25° |
| 2026-05-05 18:42 | 50.03656 | 8.54318 | 352 ft | 0 kts | 45° |
| 2026-05-05 18:43 | 50.03659 | 8.54324 | 351 ft | 3 kts | 48° |
| 2026-05-05 18:44 | 50.03672 | 8.54378 | 347 ft | 7 kts | 70° |
| 2026-05-05 18:44 | 50.03689 | 8.54448 | 347 ft | 6 kts | 70° |
| 2026-05-05 18:44 | 50.03707 | 8.54523 | 344 ft | 8 kts | 69° |
| 2026-05-05 18:44 | 50.03723 | 8.54589 | 354 ft | 5 kts | 70° |
| 2026-05-05 18:45 | 50.03739 | 8.54657 | 351 ft | 9 kts | 70° |
| 2026-05-05 18:45 | 50.03765 | 8.54766 | 352 ft | 12 kts | 69° |
| 2026-05-05 18:45 | 50.03799 | 8.54908 | 356 ft | 14 kts | 70° |
| 2026-05-05 18:45 | 50.03831 | 8.55039 | 355 ft | 12 kts | 69° |
| 2026-05-05 18:46 | 50.03857 | 8.55148 | 357 ft | 10 kts | 70° |
| 2026-05-05 18:46 | 50.03880 | 8.55244 | 350 ft | 10 kts | 69° |
| 2026-05-05 18:46 | 50.03904 | 8.55345 | 352 ft | 10 kts | 70° |
| 2026-05-05 18:46 | 50.03928 | 8.55447 | 357 ft | 12 kts | 69° |
| 2026-05-05 18:47 | 50.03963 | 8.55596 | 354 ft | 16 kts | 69° |
| 2026-05-05 18:47 | 50.03995 | 8.55729 | 354 ft | 11 kts | 69° |
| 2026-05-05 18:47 | 50.04020 | 8.55833 | 351 ft | 9 kts | 70° |
| 2026-05-05 18:47 | 50.04038 | 8.55908 | 358 ft | 6 kts | 69° |
| 2026-05-05 18:48 | 50.04040 | 8.55918 | 354 ft | 0 kts | 69° |
| 2026-05-05 18:48 | 50.04045 | 8.55935 | 357 ft | 6 kts | 69° |
| 2026-05-05 18:48 | 50.04069 | 8.56036 | 360 ft | 11 kts | 70° |
| 2026-05-05 18:48 | 50.04096 | 8.56150 | 356 ft | 12 kts | 70° |
| 2026-05-05 18:49 | 50.04129 | 8.56289 | 356 ft | 13 kts | 70° |
| 2026-05-05 18:49 | 50.04158 | 8.56412 | 358 ft | 11 kts | 70° |
| 2026-05-05 18:49 | 50.04182 | 8.56512 | 360 ft | 9 kts | 69° |
| 2026-05-05 18:49 | 50.04207 | 8.56615 | 360 ft | 13 kts | 69° |
| 2026-05-05 18:50 | 50.04235 | 8.56733 | 360 ft | 10 kts | 69° |
| 2026-05-05 18:50 | 50.04271 | 8.56801 | 359 ft | 8 kts | 27° |
| 2026-05-05 18:50 | 50.04344 | 8.56827 | 360 ft | 11 kts | 11° |
| 2026-05-05 18:50 | 50.04417 | 8.56847 | 364 ft | 10 kts | 8° |
| 2026-05-05 18:51 | 50.04468 | 8.56902 | 359 ft | 9 kts | 67° |
| 2026-05-05 18:51 | 50.04441 | 8.56938 | 361 ft | 5 kts | 169° |
| 2026-05-05 18:51 | 50.04410 | 8.56952 | 362 ft | 7 kts | 158° |
| 2026-05-05 18:51 | 50.04377 | 8.56972 | 360 ft | 0 kts | 159° |